TimeEDT,TemperatureF,Dew PointF,Humidity,Sea Level PressureIn,VisibilityMPH,Wind Direction,Wind SpeedMPH,Gust SpeedMPH,PrecipitationIn,Events,Conditions,WindDirDegrees,DateUTC
12:58 AM,25.7,15.6,66,30.17,10.0,Calm,Calm,-,N/A,,Clear,0,2014-03-25 04:58:00
1:58 AM,24.3,14.2,65,30.17,10.0,Calm,Calm,-,N/A,,Clear,0,2014-03-25 05:58:00
2:58 AM,23.7,16.5,74,30.15,10.0,Calm,Calm,-,N/A,,Overcast,0,2014-03-25 06:58:00
3:58 AM,25.7,17.6,71,30.12,10.0,Calm,Calm,-,N/A,,Overcast,0,2014-03-25 07:58:00
4:58 AM,27.1,19.8,74,30.10,10.0,Calm,Calm,-,N/A,,Mostly Cloudy,0,2014-03-25 08:58:00
5:58 AM,28.2,21.2,75,30.09,10.0,Calm,Calm,-,N/A,,Mostly Cloudy,0,2014-03-25 09:58:00
6:55 AM,28.4,23.0,80,30.08,10.0,Calm,Calm,-,N/A,,Overcast,0,2014-03-25 10:55:00
6:58 AM,28.9,22.8,78,30.09,10.0,Calm,Calm,-,0.00,,Overcast,0,2014-03-25 10:58:00
7:03 AM,28.4,23.0,80,30.08,8.0,Calm,Calm,-,N/A,,Overcast,0,2014-03-25 11:03:00
7:08 AM,28.4,23.0,80,30.08,5.0,Calm,Calm,-,N/A,Snow,Light Snow,0,2014-03-25 11:08:00
7:33 AM,30.2,24.8,80,30.08,4.0,Calm,Calm,-,N/A,Snow,Light Snow,0,2014-03-25 11:33:00
7:43 AM,30.2,26.6,86,30.08,1.8,Calm,Calm,-,N/A,Snow,Light Snow,0,2014-03-25 11:43:00
7:48 AM,30.2,26.6,86,30.08,1.5,East,1.2,-,N/A,Snow,Light Snow,80,2014-03-25 11:48:00
7:53 AM,30.2,26.6,86,30.09,1.2,Calm,Calm,-,N/A,Snow,Light Snow,0,2014-03-25 11:53:00
7:58 AM,29.8,27.1,90,30.10,1.0,Calm,Calm,-,0.00,Snow,Light Snow,0,2014-03-25 11:58:00
8:03 AM,30.2,28.4,93,30.08,1.2,Calm,Calm,-,N/A,Snow,Light Snow,0,2014-03-25 12:03:00
8:18 AM,30.2,28.4,93,30.08,1.0,NE,1.2,-,N/A,Snow,Light Snow,50,2014-03-25 12:18:00
8:28 AM,30.2,28.4,93,30.08,1.5,Calm,Calm,-,N/A,Snow,Light Snow,0,2014-03-25 12:28:00
8:33 AM,30.2,28.4,93,30.07,1.8,Variable,2.3,-,N/A,Snow,Light Snow,0,2014-03-25 12:33:00
8:43 AM,32.0,30.2,93,30.07,1.2,East,2.3,-,N/A,Snow,Light Snow,100,2014-03-25 12:43:00
8:48 AM,32.0,30.2,93,30.07,0.8,Variable,2.3,-,N/A,Snow,Light Snow,0,2014-03-25 12:48:00
8:53 AM,32.0,30.2,93,30.07,0.8,Variable,3.5,-,N/A,Snow,Light Snow,0,2014-03-25 12:53:00
8:58 AM,30.7,30.0,97,30.09,0.8,Variable,4.6,-,0.01,Snow,Light Snow,0,2014-03-25 12:58:00
9:03 AM,32.0,30.2,93,30.07,0.8,ESE,3.5,-,N/A,Snow,Light Snow,120,2014-03-25 13:03:00
9:18 AM,32.0,32.0,100,30.07,0.8,ESE,4.6,-,N/A,Snow,Light Snow,120,2014-03-25 13:18:00
9:43 AM,32.0,32.0,100,30.07,0.8,East,4.6,-,N/A,Snow,Light Snow,100,2014-03-25 13:43:00
9:58 AM,31.6,31.1,98,30.09,0.8,SE,3.5,-,0.02,Snow,Light Snow,130,2014-03-25 13:58:00
10:08 AM,32.0,32.0,100,30.07,0.8,Variable,3.5,-,N/A,Snow,Light Snow,0,2014-03-25 14:08:00
10:13 AM,32.0,32.0,100,30.06,1.0,Variable,3.5,-,N/A,Snow,Light Snow,0,2014-03-25 14:13:00
10:18 AM,32.0,32.0,100,30.07,0.8,SE,3.5,-,N/A,Snow,Light Snow,130,2014-03-25 14:18:00
10:23 AM,32.0,32.0,100,30.07,0.8,SE,3.5,-,N/A,Snow,Light Snow,130,2014-03-25 14:23:00
10:28 AM,32.0,32.0,100,30.06,0.8,ESE,3.5,-,N/A,Snow,Light Snow,110,2014-03-25 14:28:00
10:33 AM,32.0,32.0,100,30.06,0.8,ESE,3.5,-,N/A,Snow,Light Snow,120,2014-03-25 14:33:00
10:38 AM,32.0,32.0,100,30.06,0.8,ESE,4.6,-,N/A,Snow,Light Snow,120,2014-03-25 14:38:00
10:48 AM,32.0,32.0,100,30.06,1.0,ESE,5.8,-,N/A,Snow,Light Snow,110,2014-03-25 14:48:00
10:58 AM,32.0,31.5,98,30.06,0.8,ESE,4.6,-,0.01,Snow,Light Snow,110,2014-03-25 14:58:00
11:03 AM,32.0,32.0,100,30.05,1.0,ESE,5.8,-,N/A,Snow,Light Snow,120,2014-03-25 15:03:00
11:08 AM,32.0,32.0,100,30.05,1.0,SE,5.8,-,N/A,Snow,Light Snow,130,2014-03-25 15:08:00
11:13 AM,32.0,32.0,100,30.05,1.2,Variable,4.6,-,N/A,Snow,Light Snow,0,2014-03-25 15:13:00
11:23 AM,32.0,32.0,100,30.04,1.0,ESE,5.8,-,N/A,Snow,Light Snow,120,2014-03-25 15:23:00
11:43 AM,32.0,32.0,100,30.04,1.0,ESE,4.6,-,N/A,Snow,Light Snow,120,2014-03-25 15:43:00
11:53 AM,32.0,32.0,100,30.03,1.0,ESE,3.5,-,N/A,Snow,Light Snow,110,2014-03-25 15:53:00
11:58 AM,32.5,32.0,98,30.04,1.0,Variable,2.3,-,0.02,Snow,Light Snow,0,2014-03-25 15:58:00
12:03 PM,32.0,32.0,100,30.02,0.8,ESE,3.5,-,N/A,Snow,Light Snow,110,2014-03-25 16:03:00
12:18 PM,32.0,32.0,100,30.01,1.0,Variable,3.5,-,N/A,Snow,Light Snow,0,2014-03-25 16:18:00
12:28 PM,32.0,32.0,100,30.01,0.8,East,4.6,-,N/A,Snow,Light Snow,100,2014-03-25 16:28:00
12:43 PM,32.0,32.0,100,30.00,0.8,North,1.2,-,N/A,Snow,Light Snow,360,2014-03-25 16:43:00
12:48 PM,32.0,32.0,100,29.99,1.0,ENE,3.5,-,N/A,Snow,Light Snow,60,2014-03-25 16:48:00
12:58 PM,33.1,32.9,99,30.01,1.0,Variable,2.3,-,0.08,Snow,Light Snow,0,2014-03-25 16:58:00
1:08 PM,32.0,32.0,100,29.99,1.0,Variable,1.2,-,N/A,Snow,Light Snow,0,2014-03-25 17:08:00
1:13 PM,32.0,32.0,100,29.98,1.0,Variable,3.5,-,N/A,Snow,Light Snow,0,2014-03-25 17:13:00
1:18 PM,32.0,32.0,100,29.98,0.8,Calm,Calm,-,N/A,Snow,Light Snow,0,2014-03-25 17:18:00
1:33 PM,32.0,32.0,100,29.97,1.0,Variable,1.2,-,N/A,Snow,Light Snow,0,2014-03-25 17:33:00
1:38 PM,32.0,32.0,100,29.97,0.8,Calm,Calm,-,N/A,Snow,Light Snow,0,2014-03-25 17:38:00
1:43 PM,32.0,32.0,100,29.97,0.8,Variable,1.2,-,N/A,Snow,Light Snow,0,2014-03-25 17:43:00
1:48 PM,32.0,32.0,100,29.96,1.0,Variable,1.2,-,N/A,Snow,Light Snow,0,2014-03-25 17:48:00
1:53 PM,32.0,32.0,100,29.96,0.8,Variable,1.2,-,N/A,Snow,Light Snow,0,2014-03-25 17:53:00
1:58 PM,33.4,33.3,99,29.98,1.0,Calm,Calm,-,0.07,Snow,Light Snow,0,2014-03-25 17:58:00
2:03 PM,33.8,32.0,93,29.95,1.2,NNE,2.3,-,N/A,Snow,Light Snow,20,2014-03-25 18:03:00
2:13 PM,33.8,32.0,93,29.94,1.2,NE,2.3,-,N/A,Snow,Light Snow,40,2014-03-25 18:13:00
2:18 PM,33.8,32.0,93,29.94,1.2,NNE,2.3,-,N/A,Snow,Light Snow,30,2014-03-25 18:18:00
2:23 PM,33.8,32.0,93,29.93,1.2,Variable,1.2,-,N/A,Snow,Light Snow,0,2014-03-25 18:23:00
2:28 PM,32.0,32.0,100,29.93,1.0,Variable,2.3,-,N/A,Snow,Light Snow,0,2014-03-25 18:28:00
2:33 PM,32.0,32.0,100,29.93,1.2,NNE,2.3,-,N/A,Snow,Light Snow,20,2014-03-25 18:33:00
2:38 PM,33.8,33.8,100,29.92,2.0,Variable,3.5,-,N/A,Snow,Light Snow,0,2014-03-25 18:38:00
2:43 PM,33.8,33.8,100,29.92,4.0,Variable,4.6,-,N/A,Snow,Light Snow,0,2014-03-25 18:43:00
2:53 PM,35.6,33.8,93,29.91,7.0,Calm,Calm,-,N/A,Rain,Light Rain,0,2014-03-25 18:53:00
2:58 PM,34.7,33.8,97,29.91,9.0,Variable,3.5,-,0.05,Rain,Light Rain,0,2014-03-25 18:58:00
3:01 PM,33.8,32.0,93,29.90,10.0,Variable,3.5,-,N/A,,Overcast,0,2014-03-25 19:01:00
3:16 PM,33.8,32.0,93,29.90,10.0,Variable,2.3,-,N/A,,Overcast,0,2014-03-25 19:16:00
3:26 PM,35.6,32.0,87,29.89,10.0,Variable,3.5,-,N/A,,Overcast,0,2014-03-25 19:26:00
3:58 PM,34.9,32.7,92,29.89,10.0,NNE,3.5,-,0.02,,Overcast,30,2014-03-25 19:58:00
4:23 PM,35.6,32.0,87,29.88,10.0,NNE,5.8,-,N/A,,Overcast,20,2014-03-25 20:23:00
4:58 PM,34.5,32.4,92,29.88,10.0,NNE,3.5,-,0.01,,Overcast,30,2014-03-25 20:58:00
5:23 PM,33.8,32.0,93,29.87,10.0,NNE,4.6,-,N/A,,Overcast,20,2014-03-25 21:23:00
5:43 PM,33.8,32.0,93,29.87,10.0,Variable,2.3,-,N/A,,Overcast,0,2014-03-25 21:43:00
5:58 PM,34.3,32.2,92,29.88,10.0,NNE,3.5,-,0.00,,Overcast,20,2014-03-25 21:58:00
6:38 PM,33.8,32.0,93,29.87,3.0,North,2.3,-,N/A,Snow,Light Snow,360,2014-03-25 22:38:00
6:43 PM,33.8,32.0,93,29.88,3.0,Calm,Calm,-,N/A,Snow,Light Snow,0,2014-03-25 22:43:00
6:48 PM,33.8,32.0,93,29.88,2.5,Variable,2.3,-,N/A,Snow,Light Snow,0,2014-03-25 22:48:00
6:58 PM,33.8,32.9,96,29.89,2.5,NNW,2.3,-,0.01,Snow,Light Snow,340,2014-03-25 22:58:00
7:28 PM,32.0,32.0,100,29.88,2.0,North,1.2,-,N/A,Snow,Light Snow,350,2014-03-25 23:28:00
7:33 PM,32.0,32.0,100,29.88,2.0,NNW,3.5,-,N/A,Snow,Light Snow,340,2014-03-25 23:33:00
7:38 PM,32.0,32.0,100,29.88,3.0,North,5.8,-,N/A,Snow,Light Snow,350,2014-03-25 23:38:00
7:48 PM,32.0,32.0,100,29.89,5.0,North,3.5,-,N/A,Snow,Light Snow,350,2014-03-25 23:48:00
7:53 PM,32.0,32.0,100,29.89,5.0,NNW,3.5,-,N/A,Snow,Light Snow,340,2014-03-25 23:53:00
7:58 PM,33.6,32.7,96,29.91,5.0,North,4.6,-,0.01,Snow,Light Snow,350,2014-03-25 23:58:00
8:18 PM,32.0,32.0,100,29.89,7.0,Variable,5.8,-,N/A,Snow,Light Snow,0,2014-03-26 00:18:00
8:45 PM,32.0,32.0,100,29.89,8.0,Variable,3.5,-,N/A,,Mostly Cloudy,0,2014-03-26 00:45:00
8:58 PM,33.4,32.0,94,29.91,9.0,NNW,4.6,-,0.00,,Mostly Cloudy,340,2014-03-26 00:58:00
9:08 PM,32.0,32.0,100,29.90,10.0,North,6.9,-,N/A,,Overcast,350,2014-03-26 01:08:00
9:58 PM,33.6,30.6,89,29.94,10.0,NNW,5.8,-,N/A,,Overcast,330,2014-03-26 01:58:00
10:43 PM,32.0,30.2,93,29.92,10.0,NNW,3.5,-,N/A,,Scattered Clouds,330,2014-03-26 02:43:00
10:58 PM,32.9,30.4,90,29.94,10.0,NW,5.8,-,N/A,,Partly Cloudy,320,2014-03-26 02:58:00
11:58 PM,32.0,29.7,91,29.94,10.0,NW,5.8,-,N/A,,Clear,320,2014-03-26 03:58:00